createdAt,value
2023-04-03T19:15:57.479Z,6.38
2023-04-03T19:18:24.488Z,8.82
2023-04-03T19:20:51.395Z,6.20
2023-04-03T19:23:18.835Z,7.93
2023-04-03T19:25:45.708Z,8.75
2023-04-03T19:28:13.686Z,10.43
2023-04-03T19:30:40.725Z,8.70
2023-04-03T19:33:09.114Z,8.98
2023-04-03T19:35:35.978Z,10.73
2023-04-03T19:38:02.857Z,9.75
2023-04-03T19:40:29.737Z,10.77
2023-04-03T19:42:56.642Z,12.70
2023-04-03T19:45:23.564Z,7.25
2023-04-03T19:47:50.460Z,9.52
2023-04-03T19:50:18.854Z,33.05
2023-04-03T19:52:45.725Z,39.85
2023-04-03T19:55:12.575Z,57.92
2023-04-03T19:57:39.445Z,34.35
2023-04-03T20:00:07.593Z,26.25
2023-04-03T20:02:34.515Z,23.40
2023-04-03T20:05:01.423Z,26.60
2023-04-03T20:07:29.810Z,22.52
2023-04-03T20:09:56.703Z,17.90
2023-04-03T20:12:23.592Z,13.68
2023-04-03T20:14:50.442Z,11.75
2023-04-03T20:17:17.423Z,17.77
2023-04-03T20:19:44.397Z,9.27
2023-04-03T20:22:11.267Z,13.45
2023-04-03T20:24:39.519Z,12.52
2023-04-03T20:27:06.395Z,16.65
2023-04-03T20:29:35.450Z,8.68
2023-04-03T20:32:03.991Z,11.48
2023-04-03T20:34:30.892Z,14.05
2023-04-03T20:36:57.791Z,15.75
2023-04-03T20:39:24.728Z,12.38
2023-04-03T20:41:53.103Z,10.02
2023-04-03T20:44:21.510Z,19.10
2023-04-03T20:46:53.496Z,17.38
2023-04-03T20:49:21.438Z,11.18
2023-04-03T20:51:48.385Z,8.50
2023-04-03T20:54:15.244Z,12.98
2023-04-03T20:56:42.148Z,15.23
2023-04-03T20:59:10.435Z,14.95
2023-04-03T21:01:37.356Z,19.60
2023-04-03T21:04:06.075Z,16.30
2023-04-03T21:07:10.537Z,20.85
2023-04-03T21:10:14.656Z,20.85
2023-04-03T21:13:18.487Z,21.50
2023-04-03T21:15:47.891Z,18.75
2023-04-03T21:18:36.001Z,23.05
2023-04-03T21:21:02.974Z,18.77
2023-04-03T21:23:29.909Z,23.25
2023-04-03T21:25:56.778Z,21.48
2023-04-03T21:28:24.401Z,18.80
2023-04-03T21:30:51.347Z,18.73
2023-04-03T21:33:19.595Z,18.02
2023-04-03T21:35:46.516Z,20.73
2023-04-03T21:38:13.378Z,21.88
2023-04-03T21:40:40.386Z,20.45
2023-04-03T21:43:07.403Z,22.05
2023-04-03T21:45:34.281Z,14.63
2023-04-03T21:48:01.182Z,16.02
2023-04-03T21:50:29.452Z,18.55
2023-04-03T21:52:56.324Z,18.83
2023-04-03T21:55:23.262Z,18.08
2023-04-03T21:57:53.129Z,19.23
2023-04-03T22:00:20.906Z,13.00
2023-04-03T22:02:48.468Z,21.52
2023-04-03T22:05:16.730Z,13.68
2023-04-03T22:07:45.654Z,18.45
2023-04-03T22:10:12.585Z,17.42
2023-04-03T22:12:39.457Z,13.90
2023-04-03T22:15:07.907Z,13.02
2023-04-03T22:17:34.786Z,16.77
2023-04-03T22:20:01.697Z,17.55
2023-04-03T22:22:28.530Z,16.55
2023-04-03T22:24:56.765Z,10.95
2023-04-03T22:27:23.619Z,17.77
2023-04-03T22:29:50.488Z,10.27
2023-04-03T22:32:17.366Z,13.15
2023-04-03T22:34:44.233Z,15.18
2023-04-03T22:37:11.106Z,12.75
2023-04-03T22:39:37.966Z,11.40
2023-04-03T22:42:06.262Z,15.52
2023-04-03T22:44:36.487Z,14.38
2023-04-03T22:47:03.772Z,11.60
2023-04-03T22:49:30.743Z,9.50
2023-04-03T22:51:57.614Z,17.63
2023-04-03T22:54:24.489Z,14.65
2023-04-03T22:56:51.371Z,13.32
2023-04-03T22:59:19.646Z,12.90
2023-04-03T23:01:46.517Z,10.15
2023-04-03T23:04:13.441Z,13.02
2023-04-03T23:06:40.351Z,10.48
2023-04-03T23:09:07.193Z,12.40
2023-04-03T23:11:34.063Z,9.32
2023-04-03T23:14:00.959Z,9.38
2023-04-03T23:16:29.224Z,15.18
2023-04-03T23:18:56.114Z,9.60
2023-04-03T23:21:23.030Z,11.32
2023-04-03T23:23:49.902Z,13.35
2023-04-03T23:26:16.784Z,8.30
2023-04-03T23:28:43.681Z,8.00
2023-04-03T23:31:10.550Z,16.05
2023-04-03T23:33:38.815Z,9.23
2023-04-03T23:36:09.133Z,8.43
2023-04-03T23:38:36.207Z,8.23
2023-04-03T23:41:03.107Z,10.48
2023-04-03T23:43:29.976Z,10.50
2023-04-03T23:45:56.897Z,8.73
2023-04-03T23:48:23.789Z,8.32
2023-04-03T23:50:52.036Z,12.23
2023-04-03T23:53:18.891Z,7.32
2023-04-03T23:55:45.762Z,7.03
2023-04-03T23:58:12.606Z,7.63
